Terminal Aerodrome Forecast
Issued by NWS Pocatello, ID

Home | Current Version | Previous Version | Text Only | Print | Product List | Glossary On
Versions: 1 2 3 4 5 6 7 8 9 10 11 12 13 14 15
000
FTUS45 KPIH 311100
TAFBYI
TAF
KBYI 311120Z 3112/0112 VRB05KT P6SM FEW200
     FM312000 VRB05KT P6SM VCTS SCT080CB
     FM010300 VRB05KT P6SM SCT150=

USA.gov is the U.S. government's official web portal to all federal, state and local government web resources and services.